createdAt,value
2022-11-10T00:00:22.575Z,34.63
2022-11-10T00:00:45.212Z,36.30
2022-11-10T00:01:09.256Z,33.80
2022-11-10T00:01:32.014Z,33.72
2022-11-10T00:01:54.661Z,35.10
2022-11-10T00:02:17.248Z,34.88
2022-11-10T00:02:39.851Z,34.15
2022-11-10T00:03:02.624Z,33.50
2022-11-10T00:03:28.335Z,33.25
2022-11-10T00:03:51.126Z,34.80
2022-11-10T00:04:14.154Z,34.55
2022-11-10T00:04:36.840Z,34.78
2022-11-10T00:04:59.495Z,33.17
2022-11-10T00:05:22.146Z,32.80
2022-11-10T00:05:44.742Z,33.15
2022-11-10T00:06:08.611Z,32.33
2022-11-10T00:06:31.279Z,33.38
2022-11-10T00:06:54.095Z,34.20
2022-11-10T00:07:19.641Z,34.03
2022-11-10T00:07:42.316Z,34.83
2022-11-10T00:08:06.271Z,36.03
2022-11-10T00:08:29.033Z,34.40
2022-11-10T00:08:51.888Z,36.08
2022-11-10T00:09:14.649Z,34.78
2022-11-10T00:09:37.399Z,34.75
2022-11-10T00:10:00.102Z,36.35
2022-11-10T00:10:22.770Z,34.15
2022-11-10T00:11:02.052Z,38.17
2022-11-10T00:11:24.755Z,40.53
2022-11-10T00:11:47.438Z,37.80
2022-11-10T00:12:10.170Z,41.22
2022-11-10T00:12:34.422Z,42.95
2022-11-10T00:13:00.894Z,47.00
2022-11-10T00:13:24.787Z,50.03
2022-11-10T00:14:07.417Z,39.42
2022-11-10T00:14:49.547Z,34.25
2022-11-10T00:15:30.869Z,39.40
2022-11-10T00:16:12.128Z,33.35
2022-11-10T00:16:53.442Z,39.50
2022-11-10T00:17:16.086Z,36.60
2022-11-10T00:17:38.855Z,36.00
2022-11-10T00:18:04.222Z,35.20
2022-11-10T00:18:26.922Z,35.83
2022-11-10T00:18:49.544Z,35.58
2022-11-10T00:19:12.273Z,38.13
2022-11-10T00:19:35.303Z,43.38
2022-11-10T00:19:57.989Z,37.75
2022-11-10T00:20:20.717Z,42.70
2022-11-10T00:20:43.507Z,42.10
2022-11-10T00:21:07.016Z,43.78
2022-11-10T00:21:29.652Z,39.75
2022-11-10T00:21:52.977Z,36.67
2022-11-10T00:22:17.957Z,40.05
2022-11-10T00:22:44.607Z,35.50
2022-11-10T00:23:11.110Z,33.33
2022-11-10T00:23:37.708Z,31.92
2022-11-10T00:24:05.311Z,36.05
2022-11-10T00:24:32.259Z,35.28
2022-11-10T00:24:59.112Z,36.45
2022-11-10T00:25:25.798Z,37.03
2022-11-10T00:25:51.653Z,35.00
2022-11-10T00:26:18.557Z,32.60
2022-11-10T00:26:45.057Z,35.83
2022-11-10T00:27:11.700Z,34.53
2022-11-10T00:27:40.148Z,35.75
2022-11-10T00:28:06.860Z,35.35
2022-11-10T00:28:35.502Z,36.50
2022-11-10T00:29:05.208Z,38.22
2022-11-10T00:29:31.848Z,34.45
2022-11-10T00:29:58.748Z,32.78
2022-11-10T00:30:25.449Z,31.90
2022-11-10T00:30:51.355Z,33.38
2022-11-10T00:31:17.893Z,33.15
2022-11-10T00:31:43.554Z,33.47
2022-11-10T00:32:10.104Z,32.95
2022-11-10T00:32:36.747Z,35.72
2022-11-10T00:33:02.806Z,32.70
2022-11-10T00:33:29.005Z,34.20
2022-11-10T00:33:55.056Z,31.73
2022-11-10T00:34:20.937Z,31.67
2022-11-10T00:34:47.498Z,31.10
2022-11-10T00:35:14.145Z,31.38
2022-11-10T00:35:40.344Z,31.65
2022-11-10T00:36:08.618Z,31.38
2022-11-10T00:36:35.164Z,31.42
2022-11-10T00:37:01.725Z,32.50
2022-11-10T00:37:27.073Z,31.98
2022-11-10T00:37:53.763Z,31.65
2022-11-10T00:38:19.378Z,30.45
2022-11-10T00:38:45.065Z,30.50
2022-11-10T00:39:11.515Z,34.70
2022-11-10T00:39:38.460Z,31.52
2022-11-10T00:40:04.047Z,30.73
2022-11-10T00:40:30.811Z,31.80
2022-11-10T00:40:57.196Z,30.73
2022-11-10T00:41:23.845Z,30.38
2022-11-10T00:41:49.646Z,29.73
2022-11-10T00:42:15.448Z,29.63
2022-11-10T00:42:43.845Z,30.38
2022-11-10T00:43:09.497Z,29.10
2022-11-10T00:43:35.412Z,29.70
2022-11-10T00:44:02.148Z,28.90
2022-11-10T00:44:27.646Z,29.02
2022-11-10T00:44:53.644Z,29.65
2022-11-10T00:45:20.041Z,30.10
2022-11-10T00:45:47.346Z,30.33
2022-11-10T00:46:12.248Z,29.55
2022-11-10T00:46:37.799Z,29.88
2022-11-10T00:47:03.141Z,30.05
2022-11-10T00:47:28.742Z,28.55
2022-11-10T00:47:55.445Z,30.13
2022-11-10T00:48:22.200Z,30.30
2022-11-10T00:48:49.088Z,28.40
2022-11-10T00:49:15.745Z,29.42
2022-11-10T00:49:42.597Z,29.55
2022-11-10T00:50:09.550Z,29.83
2022-11-10T00:50:36.198Z,29.77
2022-11-10T00:51:08.489Z,29.10
2022-11-10T00:51:35.196Z,32.38
2022-11-10T00:52:01.690Z,32.20
2022-11-10T00:52:30.892Z,31.13
2022-11-10T00:52:57.543Z,28.52
2022-11-10T00:53:24.529Z,27.80
2022-11-10T00:53:51.342Z,27.67
2022-11-10T00:54:18.195Z,28.85
2022-11-10T00:54:44.847Z,29.20
2022-11-10T00:55:11.896Z,28.08
2022-11-10T00:55:44.145Z,28.73
2022-11-10T00:56:10.896Z,29.50
2022-11-10T00:56:36.289Z,31.27
2022-11-10T00:57:02.789Z,29.88
2022-11-10T00:57:29.299Z,29.77
2022-11-10T00:57:57.701Z,30.88
2022-11-10T00:58:24.394Z,30.13
2022-11-10T00:58:51.195Z,30.23
2022-11-10T00:59:17.794Z,29.33
2022-11-10T00:59:43.991Z,30.42
2022-11-10T01:00:14.540Z,30.67
2022-11-10T01:00:41.199Z,29.73
2022-11-10T01:01:08.221Z,29.63
2022-11-10T01:01:34.001Z,29.85
2022-11-10T01:02:01.593Z,30.85
2022-11-10T01:02:28.235Z,29.13
2022-11-10T01:02:57.933Z,30.63
2022-11-10T01:03:24.843Z,30.58
2022-11-10T01:03:50.730Z,30.73
2022-11-10T01:04:17.535Z,30.38
2022-11-10T01:04:44.285Z,30.20
2022-11-10T01:05:11.482Z,29.38
2022-11-10T01:05:39.731Z,30.98
2022-11-10T01:06:08.784Z,30.35
2022-11-10T01:06:35.827Z,31.42
2022-11-10T01:07:02.405Z,30.90
2022-11-10T01:07:28.183Z,33.42
2022-11-10T01:07:54.587Z,31.02
2022-11-10T01:08:21.280Z,29.80
2022-11-10T01:08:48.085Z,30.92
2022-11-10T01:09:17.432Z,30.27
2022-11-10T01:09:43.627Z,29.63
2022-11-10T01:10:11.033Z,29.88
2022-11-10T01:10:37.677Z,29.67
2022-11-10T01:11:03.275Z,29.52
2022-11-10T01:11:27.283Z,28.50
2022-11-10T01:11:52.981Z,29.17
2022-11-10T01:12:15.912Z,28.75
2022-11-10T01:12:38.660Z,28.45
2022-11-10T01:13:02.776Z,28.70
2022-11-10T01:13:25.544Z,28.75
2022-11-10T01:13:49.451Z,33.20
2022-11-10T01:14:13.296Z,28.58
2022-11-10T01:14:36.047Z,28.77
2022-11-10T01:14:58.975Z,27.67
2022-11-10T01:15:26.177Z,27.60
2022-11-10T01:15:50.423Z,28.05
2022-11-10T01:16:14.430Z,27.48
2022-11-10T01:16:38.085Z,27.20
2022-11-10T01:17:07.679Z,28.38
2022-11-10T01:17:31.051Z,28.27
2022-11-10T01:17:54.489Z,27.38
2022-11-10T01:18:17.301Z,28.15
2022-11-10T01:18:41.213Z,28.48
2022-11-10T01:19:06.370Z,30.95
2022-11-10T01:19:30.417Z,28.77
2022-11-10T01:19:53.254Z,29.23
2022-11-10T01:20:16.190Z,29.00
2022-11-10T01:20:39.039Z,29.88
2022-11-10T01:21:07.779Z,28.75
2022-11-10T01:21:31.084Z,28.73
2022-11-10T01:22:26.129Z,29.65
2022-11-10T01:22:48.903Z,29.73
2022-11-10T01:23:11.683Z,30.67
2022-11-10T01:23:34.480Z,30.30
2022-11-10T01:23:59.868Z,30.77
2022-11-10T01:24:24.767Z,32.00
2022-11-10T01:24:52.859Z,31.92
2022-11-10T01:25:15.841Z,32.30
2022-11-10T01:25:39.063Z,31.98
2022-11-10T01:26:14.425Z,30.95
2022-11-10T01:26:39.295Z,31.35
2022-11-10T01:27:02.105Z,31.98
2022-11-10T01:27:24.889Z,31.45
2022-11-10T01:27:49.465Z,31.13
2022-11-10T01:28:29.949Z,30.70
2022-11-10T01:28:52.664Z,32.20
2022-11-10T01:29:17.455Z,32.78
2022-11-10T01:29:40.219Z,33.53
2022-11-10T01:30:11.604Z,32.13
2022-11-10T01:30:41.017Z,31.77
2022-11-10T01:31:12.488Z,31.92
2022-11-10T01:31:35.840Z,31.88
2022-11-10T01:31:58.580Z,31.20
2022-11-10T01:32:21.335Z,30.40
2022-11-10T01:32:47.059Z,28.83
2022-11-10T01:33:13.695Z,30.48
2022-11-10T01:33:37.784Z,30.73
2022-11-10T01:34:00.484Z,30.08
2022-11-10T01:34:23.260Z,30.13
2022-11-10T01:34:46.045Z,28.40
2022-11-10T01:35:18.851Z,29.38
2022-11-10T01:35:45.485Z,29.08
2022-11-10T01:36:15.131Z,29.20
2022-11-10T01:36:39.701Z,28.65
2022-11-10T01:37:03.187Z,29.77
2022-11-10T01:37:31.024Z,28.70
2022-11-10T01:37:53.860Z,29.25
2022-11-10T01:38:18.627Z,28.67
2022-11-10T01:38:44.270Z,27.75
2022-11-10T01:39:11.236Z,28.08
2022-11-10T01:39:34.569Z,27.83
2022-11-10T01:40:12.216Z,27.75
2022-11-10T01:40:41.472Z,26.98
2022-11-10T01:41:05.671Z,27.25
2022-11-10T01:41:42.070Z,26.75
2022-11-10T01:42:04.980Z,26.83
2022-11-10T01:42:40.009Z,26.90
2022-11-10T01:43:08.629Z,26.40
2022-11-10T01:43:33.045Z,26.75
2022-11-10T01:44:14.560Z,26.90
2022-11-10T01:44:40.156Z,27.67
2022-11-10T01:45:41.862Z,28.48
2022-11-10T01:46:10.429Z,27.05
2022-11-10T01:46:39.991Z,26.38
2022-11-10T01:47:03.010Z,26.67
2022-11-10T01:47:26.506Z,26.90
2022-11-10T01:47:49.414Z,27.23
2022-11-10T01:48:22.360Z,28.00
2022-11-10T01:48:49.954Z,26.42
2022-11-10T01:49:16.016Z,27.85
2022-11-10T01:49:39.081Z,28.85
2022-11-10T01:50:05.384Z,27.38
2022-11-10T01:50:34.045Z,26.63
2022-11-10T01:50:56.885Z,26.90
2022-11-10T01:51:27.470Z,28.23
2022-11-10T01:51:52.087Z,27.25
2022-11-10T01:52:15.250Z,28.08
2022-11-10T01:52:39.293Z,27.95
2022-11-10T01:53:05.332Z,29.77
2022-11-10T01:53:31.607Z,30.02
2022-11-10T01:53:55.176Z,28.48
2022-11-10T01:54:19.844Z,27.83
2022-11-10T01:54:46.775Z,30.02
2022-11-10T01:55:21.700Z,27.15
2022-11-10T01:55:44.960Z,27.88
2022-11-10T01:56:07.929Z,28.17
2022-11-10T01:56:32.730Z,27.95
2022-11-10T01:56:58.276Z,27.08
2022-11-10T01:57:39.051Z,29.25
2022-11-10T01:58:02.860Z,28.02
2022-11-10T01:58:33.935Z,28.00
2022-11-10T01:58:58.880Z,27.80
2022-11-10T01:59:29.286Z,26.70
2022-11-10T01:59:53.570Z,28.75
2022-11-10T02:00:22.076Z,27.05
2022-11-10T02:00:44.901Z,26.65
2022-11-10T02:01:07.884Z,26.60
2022-11-10T02:01:32.319Z,26.35
2022-11-10T02:01:57.230Z,26.85
2022-11-10T02:02:26.279Z,26.35
2022-11-10T02:02:53.544Z,26.77
2022-11-10T02:03:20.824Z,27.42
2022-11-10T02:03:46.620Z,26.02
2022-11-10T02:04:11.141Z,25.77
2022-11-10T02:04:34.326Z,27.02
2022-11-10T02:04:58.176Z,27.02
2022-11-10T02:05:21.766Z,26.80
2022-11-10T02:05:44.805Z,28.60
2022-11-10T02:06:18.773Z,28.55
2022-11-10T02:06:43.928Z,26.38
2022-11-10T02:07:09.219Z,27.55
2022-11-10T02:07:42.236Z,28.02
2022-11-10T02:08:05.924Z,27.38
2022-11-10T02:08:28.634Z,26.30
2022-11-10T02:08:51.725Z,28.63
2022-11-10T02:09:30.441Z,27.90
2022-11-10T02:09:53.555Z,29.08
2022-11-10T02:10:20.017Z,28.63
2022-11-10T02:10:46.573Z,27.85
2022-11-10T02:11:12.494Z,28.05
2022-11-10T02:11:35.997Z,27.27
2022-11-10T02:12:02.280Z,27.35
2022-11-10T02:12:38.722Z,27.30
2022-11-10T02:13:03.319Z,27.25
2022-11-10T02:13:27.520Z,27.90
2022-11-10T02:13:51.679Z,29.40
2022-11-10T02:14:14.506Z,28.80
2022-11-10T02:14:40.175Z,27.67
2022-11-10T02:15:08.271Z,31.10
2022-11-10T02:15:40.044Z,39.13
2022-11-10T02:16:02.770Z,32.00
2022-11-10T02:16:25.716Z,31.50
2022-11-10T02:16:48.485Z,30.38
2022-11-10T02:17:11.531Z,31.17
2022-11-10T02:17:37.441Z,32.53
2022-11-10T02:18:22.580Z,30.52
2022-11-10T02:18:46.806Z,32.25
2022-11-10T02:19:16.634Z,29.77
2022-11-10T02:19:45.720Z,34.92
2022-11-10T02:20:28.014Z,33.90
2022-11-10T02:20:52.255Z,37.17
2022-11-10T02:21:16.933Z,32.50
2022-11-10T02:21:39.925Z,32.28
2022-11-10T02:22:02.675Z,34.75
2022-11-10T02:22:25.434Z,35.35
2022-11-10T02:22:48.311Z,34.38
2022-11-10T02:23:14.960Z,33.35
2022-11-10T02:23:46.029Z,33.67
2022-11-10T02:24:08.947Z,30.13
2022-11-10T02:24:31.727Z,31.17
2022-11-10T02:24:54.560Z,30.92
2022-11-10T02:25:20.019Z,29.80
2022-11-10T02:25:42.875Z,28.83
2022-11-10T02:26:06.377Z,30.75
2022-11-10T02:26:29.988Z,30.50
2022-11-10T02:26:54.727Z,30.83
2022-11-10T02:27:18.268Z,29.95
2022-11-10T02:27:41.013Z,30.98
2022-11-10T02:28:03.949Z,29.80
2022-11-10T02:28:27.369Z,31.02
2022-11-10T02:28:50.178Z,30.55
2022-11-10T02:29:13.062Z,31.80
2022-11-10T02:29:35.842Z,33.72
2022-11-10T02:30:01.184Z,31.63
2022-11-10T02:30:27.501Z,32.20
2022-11-10T02:30:53.669Z,30.38
2022-11-10T02:31:20.810Z,31.17
2022-11-10T02:31:43.993Z,31.48
2022-11-10T02:32:06.851Z,31.73
2022-11-10T02:32:29.756Z,30.17
2022-11-10T02:32:59.890Z,31.98
2022-11-10T02:33:23.104Z,30.85
2022-11-10T02:33:56.696Z,31.55
2022-11-10T02:34:20.108Z,31.90
2022-11-10T02:35:08.805Z,30.58
2022-11-10T02:35:35.696Z,28.50
2022-11-10T02:36:10.261Z,30.08
2022-11-10T02:36:34.503Z,32.47
2022-11-10T02:36:57.236Z,32.22
2022-11-10T02:37:21.243Z,32.33
2022-11-10T02:37:46.348Z,32.22
2022-11-10T02:38:10.402Z,33.05
2022-11-10T02:38:37.257Z,32.78
2022-11-10T02:39:03.796Z,30.52
2022-11-10T02:39:27.369Z,33.65
2022-11-10T02:39:50.230Z,34.83
2022-11-10T02:40:16.931Z,33.53
2022-11-10T02:40:46.127Z,31.20
2022-11-10T02:41:13.329Z,33.10
2022-11-10T02:41:39.538Z,32.15
2022-11-10T02:42:02.307Z,32.05
2022-11-10T02:42:27.123Z,37.25
2022-11-10T02:42:52.147Z,32.55
2022-11-10T02:43:20.994Z,34.15
2022-11-10T02:43:44.842Z,34.42
2022-11-10T02:44:07.612Z,33.92
2022-11-10T02:44:30.566Z,34.42
2022-11-10T02:44:58.885Z,31.35
2022-11-10T02:45:21.705Z,31.83
2022-11-10T02:45:54.935Z,32.60
2022-11-10T02:46:20.226Z,35.15
2022-11-10T02:46:43.058Z,39.17
2022-11-10T02:47:05.917Z,33.13
2022-11-10T02:47:29.947Z,32.42
2022-11-10T02:47:53.139Z,32.05
2022-11-10T02:48:17.648Z,32.53
2022-11-10T02:48:42.217Z,33.72
2022-11-10T02:49:10.384Z,32.35
2022-11-10T02:49:34.320Z,33.28
2022-11-10T02:49:57.397Z,31.13
2022-11-10T02:50:21.682Z,32.05
2022-11-10T02:50:55.253Z,32.05
2022-11-10T02:51:19.625Z,34.00
2022-11-10T02:51:43.134Z,34.53
2022-11-10T02:52:06.128Z,32.50
2022-11-10T02:52:28.875Z,33.97
2022-11-10T02:52:51.712Z,32.75
2022-11-10T02:53:15.108Z,36.47
2022-11-10T02:53:37.824Z,39.55
2022-11-10T02:54:00.843Z,35.08
2022-11-10T02:54:23.546Z,34.72
2022-11-10T02:54:46.294Z,33.47
2022-11-10T02:55:09.388Z,36.03
2022-11-10T02:55:32.168Z,32.78
2022-11-10T02:55:55.850Z,34.03
2022-11-10T02:56:18.789Z,34.03
2022-11-10T02:56:41.519Z,33.58
2022-11-10T02:57:04.491Z,31.85
2022-11-10T02:57:27.229Z,36.65
2022-11-10T02:57:52.819Z,37.50
2022-11-10T02:58:15.634Z,36.08
2022-11-10T02:58:38.415Z,33.10
2022-11-10T02:59:01.227Z,33.33
2022-11-10T02:59:24.054Z,34.20
2022-11-10T02:59:46.950Z,35.53
2022-11-10T03:00:11.596Z,35.60
2022-11-10T03:00:34.362Z,37.17
2022-11-10T03:00:59.593Z,36.50
2022-11-10T03:01:23.445Z,35.85
2022-11-10T03:01:46.318Z,33.50
2022-11-10T03:02:09.146Z,33.40
2022-11-10T03:02:32.439Z,32.75
2022-11-10T03:02:56.488Z,32.78
2022-11-10T03:03:19.463Z,35.33
2022-11-10T03:03:42.674Z,32.85
2022-11-10T03:04:06.299Z,31.95
2022-11-10T03:04:29.024Z,31.00
2022-11-10T03:04:51.792Z,31.75
2022-11-10T03:05:14.458Z,31.85
2022-11-10T03:05:37.231Z,32.58
2022-11-10T03:06:00.496Z,30.92
2022-11-10T03:06:24.974Z,32.00
2022-11-10T03:06:47.864Z,31.42
2022-11-10T03:07:10.661Z,31.20
2022-11-10T03:07:33.546Z,31.23
2022-11-10T03:07:56.497Z,31.25
2022-11-10T03:08:19.411Z,31.73
2022-11-10T03:08:42.197Z,32.35
2022-11-10T03:09:04.936Z,32.05
2022-11-10T03:09:27.682Z,31.45
2022-11-10T03:09:50.918Z,31.45
2022-11-10T03:10:13.643Z,32.22
2022-11-10T03:10:36.348Z,33.97
2022-11-10T03:10:59.738Z,33.47
2022-11-10T03:11:22.521Z,34.28
2022-11-10T03:11:45.446Z,35.63
2022-11-10T03:12:08.217Z,32.88
2022-11-10T03:12:31.218Z,33.88
2022-11-10T03:12:55.440Z,34.35
2022-11-10T03:13:18.255Z,33.55
2022-11-10T03:14:00.306Z,33.55
2022-11-10T03:14:23.646Z,34.58
2022-11-10T03:14:46.396Z,39.35
2022-11-10T03:15:10.252Z,38.42
2022-11-10T03:15:32.990Z,34.67
2022-11-10T03:15:55.687Z,33.80
2022-11-10T03:16:18.431Z,33.25
2022-11-10T03:16:41.179Z,32.97
2022-11-10T03:17:03.936Z,32.72
2022-11-10T03:17:26.663Z,33.78
2022-11-10T03:17:49.461Z,31.90
2022-11-10T03:18:12.183Z,31.13
2022-11-10T03:18:35.016Z,31.75
2022-11-10T03:18:57.765Z,33.00
2022-11-10T03:19:20.517Z,30.63
2022-11-10T03:19:43.227Z,32.88
2022-11-10T03:20:06.582Z,33.55
2022-11-10T03:20:29.377Z,33.47
2022-11-10T03:20:52.271Z,32.17
2022-11-10T03:21:15.140Z,32.03
2022-11-10T03:21:39.327Z,32.67
2022-11-10T03:22:02.578Z,31.83
2022-11-10T03:22:25.388Z,33.00
2022-11-10T03:22:48.124Z,32.47
2022-11-10T03:23:10.886Z,30.83
2022-11-10T03:23:33.642Z,31.23
2022-11-10T03:23:56.411Z,32.03
2022-11-10T03:24:19.127Z,32.15
2022-11-10T03:24:41.811Z,32.80
2022-11-10T03:25:08.492Z,33.30
2022-11-10T03:25:31.288Z,33.53
2022-11-10T03:25:56.656Z,32.08
2022-11-10T03:26:19.533Z,33.83
2022-11-10T03:26:42.299Z,33.60
2022-11-10T03:27:05.092Z,33.60
2022-11-10T03:27:27.874Z,32.40
2022-11-10T03:27:50.597Z,33.05
2022-11-10T03:28:13.382Z,31.33
2022-11-10T03:28:36.101Z,32.08
2022-11-10T03:28:58.971Z,31.48
2022-11-10T03:29:21.826Z,31.23
2022-11-10T03:29:44.552Z,32.28
2022-11-10T03:30:08.723Z,33.97
2022-11-10T03:30:31.568Z,34.30
2022-11-10T03:30:54.535Z,31.20
2022-11-10T03:31:17.257Z,31.65
2022-11-10T03:31:40.033Z,32.95
2022-11-10T03:32:02.752Z,35.47
2022-11-10T03:32:25.626Z,31.08
2022-11-10T03:32:48.454Z,31.10
2022-11-10T03:33:11.369Z,31.80
2022-11-10T03:33:34.175Z,32.22
2022-11-10T03:33:56.969Z,31.10
2022-11-10T03:34:19.779Z,31.10
2022-11-10T03:34:42.540Z,30.73
2022-11-10T03:35:06.298Z,30.27
2022-11-10T03:35:29.157Z,32.25
2022-11-10T03:35:51.897Z,32.22
2022-11-10T03:36:14.743Z,32.13
2022-11-10T03:36:38.954Z,31.75
2022-11-10T03:37:01.740Z,31.35
2022-11-10T03:37:24.589Z,31.45
2022-11-10T03:37:47.404Z,29.70
2022-11-10T03:38:10.124Z,29.73
2022-11-10T03:38:32.876Z,30.42
2022-11-10T03:38:55.610Z,36.30
2022-11-10T03:39:18.469Z,30.52
2022-11-10T03:39:41.529Z,29.23
2022-11-10T03:40:04.735Z,29.33
2022-11-10T03:40:27.550Z,30.33
2022-11-10T03:41:17.476Z,29.08
2022-11-10T03:41:33.750Z,29.15
2022-11-10T03:41:56.576Z,30.58
2022-11-10T03:42:19.300Z,31.00
2022-11-10T03:42:43.196Z,31.52
2022-11-10T03:43:05.980Z,29.52
2022-11-10T03:43:28.682Z,30.88
2022-11-10T03:43:51.516Z,30.30
2022-11-10T03:44:14.246Z,29.90
2022-11-10T03:44:37.067Z,31.38
2022-11-10T03:44:59.755Z,31.02
2022-11-10T03:45:22.682Z,29.05
2022-11-10T03:45:45.470Z,29.75
2022-11-10T03:46:08.862Z,28.35
2022-11-10T03:46:31.922Z,29.30
2022-11-10T03:46:54.651Z,29.30
2022-11-10T03:47:17.358Z,30.63
2022-11-10T03:47:40.021Z,34.42
2022-11-10T03:48:02.762Z,29.60
2022-11-10T03:48:25.432Z,29.48
2022-11-10T03:48:53.160Z,29.17
2022-11-10T03:49:16.527Z,29.40
2022-11-10T03:49:40.039Z,28.20
2022-11-10T03:50:02.736Z,28.27
2022-11-10T03:50:25.455Z,27.60
2022-11-10T03:50:48.173Z,27.42
2022-11-10T03:51:10.890Z,28.75
2022-11-10T03:51:33.688Z,33.60
2022-11-10T03:51:57.966Z,28.45
2022-11-10T03:52:20.710Z,27.45
2022-11-10T03:52:44.270Z,28.65
2022-11-10T03:53:07.095Z,29.45
2022-11-10T03:53:30.031Z,27.08
2022-11-10T03:53:52.791Z,27.38
2022-11-10T03:54:15.546Z,27.77
2022-11-10T03:54:38.666Z,27.77
2022-11-10T03:55:03.494Z,27.05
2022-11-10T03:55:26.600Z,30.13
2022-11-10T03:55:49.339Z,30.77
2022-11-10T03:56:12.056Z,40.53
2022-11-10T03:56:34.826Z,41.42
2022-11-10T03:56:57.536Z,29.48
2022-11-10T03:57:20.281Z,35.22
2022-11-10T03:57:43.146Z,34.47
2022-11-10T03:58:05.751Z,27.42
2022-11-10T03:58:28.490Z,27.73
2022-11-10T03:58:51.266Z,27.52
2022-11-10T03:59:13.946Z,27.65
2022-11-10T03:59:36.618Z,27.98
2022-11-10T03:59:59.525Z,28.17
2022-11-10T04:00:22.296Z,28.80
2022-11-10T04:00:44.993Z,27.48
2022-11-10T04:01:07.887Z,28.35
2022-11-10T04:01:30.693Z,30.15
2022-11-10T04:01:53.516Z,34.53
2022-11-10T04:02:16.339Z,32.85
2022-11-10T04:02:39.206Z,30.13
2022-11-10T04:03:01.916Z,27.50
2022-11-10T04:03:25.169Z,28.45
2022-11-10T04:03:51.485Z,29.20
2022-11-10T04:04:33.143Z,27.02
2022-11-10T04:05:14.410Z,26.30
2022-11-10T04:05:55.697Z,26.00
2022-11-10T04:06:39.444Z,26.77
2022-11-10T04:07:22.279Z,25.98
2022-11-10T04:08:03.767Z,24.98
2022-11-10T04:08:45.370Z,25.02
2022-11-10T04:09:08.091Z,25.08
2022-11-10T04:09:30.816Z,25.38
2022-11-10T04:09:53.495Z,25.20
2022-11-10T04:10:16.234Z,24.50
2022-11-10T04:10:38.976Z,25.02
2022-11-10T04:11:02.099Z,24.00
2022-11-10T04:11:43.212Z,24.27
2022-11-10T04:12:25.297Z,25.35
2022-11-10T04:13:06.790Z,25.98
2022-11-10T04:13:48.151Z,24.65
2022-11-10T04:14:29.702Z,24.85
2022-11-10T04:15:11.040Z,25.65
2022-11-10T04:15:42.915Z,24.92
2022-11-10T04:16:05.778Z,24.95
2022-11-10T04:16:28.736Z,24.48
2022-11-10T04:16:51.456Z,23.27
2022-11-10T04:17:14.160Z,24.17
2022-11-10T04:17:36.892Z,24.05
2022-11-10T04:18:19.594Z,26.40
2022-11-10T04:18:42.406Z,24.83
2022-11-10T04:19:05.291Z,25.17
2022-11-10T04:19:28.165Z,25.35
2022-11-10T04:19:50.891Z,24.77
2022-11-10T04:20:13.631Z,24.88
2022-11-10T04:20:38.736Z,25.17
2022-11-10T04:21:02.414Z,24.40
2022-11-10T04:21:25.130Z,24.33
2022-11-10T04:21:47.866Z,24.73
2022-11-10T04:22:32.098Z,23.90
2022-11-10T04:23:27.216Z,24.15
2022-11-10T04:23:52.431Z,23.85
2022-11-10T04:24:15.206Z,23.38
2022-11-10T04:24:37.936Z,24.15
2022-11-10T04:25:00.911Z,24.23
2022-11-10T04:25:23.616Z,23.70
2022-11-10T04:26:06.251Z,23.63
2022-11-10T04:26:29.006Z,23.67
2022-11-10T04:26:51.766Z,24.23
2022-11-10T04:27:14.570Z,23.98
2022-11-10T04:27:38.771Z,24.30
2022-11-10T04:28:01.460Z,23.85
2022-11-10T04:28:24.153Z,24.17
2022-11-10T04:28:48.816Z,24.05
2022-11-10T04:29:12.353Z,22.90
2022-11-10T04:29:35.415Z,23.50
2022-11-10T04:29:58.150Z,23.95
2022-11-10T04:30:20.970Z,23.42
2022-11-10T04:30:44.916Z,23.95
2022-11-10T04:31:10.277Z,24.17
2022-11-10T04:31:34.175Z,23.02
2022-11-10T04:31:56.882Z,23.52
2022-11-10T04:32:19.656Z,23.08
2022-11-10T04:32:42.410Z,23.77
2022-11-10T04:33:05.132Z,23.17
2022-11-10T04:33:27.896Z,22.92
2022-11-10T04:33:50.755Z,23.58
2022-11-10T04:34:14.462Z,23.55
2022-11-10T04:34:37.278Z,23.23
2022-11-10T04:34:59.998Z,24.15
2022-11-10T04:35:22.717Z,23.27
2022-11-10T04:35:45.449Z,23.70
2022-11-10T04:36:09.340Z,22.83
2022-11-10T04:36:33.002Z,23.35
2022-11-10T04:36:55.788Z,24.25
2022-11-10T04:37:19.929Z,25.50
2022-11-10T04:37:42.771Z,24.38
2022-11-10T04:38:05.601Z,24.92
2022-11-10T04:38:28.319Z,24.80
2022-11-10T04:38:51.127Z,24.05
2022-11-10T04:39:13.848Z,23.88
2022-11-10T04:39:36.552Z,24.25
2022-11-10T04:39:59.343Z,24.42
2022-11-10T04:40:22.161Z,24.40
2022-11-10T04:40:44.907Z,23.85
2022-11-10T04:41:08.030Z,23.27
2022-11-10T04:41:30.762Z,24.02
2022-11-10T04:41:55.204Z,23.67
2022-11-10T04:42:21.223Z,24.13
2022-11-10T04:42:43.863Z,23.77
2022-11-10T04:43:06.613Z,23.83
2022-11-10T04:43:29.448Z,23.80
2022-11-10T04:43:52.303Z,24.60
2022-11-10T04:44:15.138Z,24.58
2022-11-10T04:44:38.179Z,24.42
2022-11-10T04:45:00.933Z,23.70
2022-11-10T04:45:23.738Z,23.65
2022-11-10T04:45:46.488Z,23.42
2022-11-10T04:46:13.769Z,22.38
2022-11-10T04:46:37.779Z,23.27
2022-11-10T04:47:00.519Z,23.52
2022-11-10T04:47:23.207Z,23.38
2022-11-10T04:47:46.039Z,24.65
2022-11-10T04:48:08.808Z,23.83
2022-11-10T04:48:33.764Z,24.20
2022-11-10T04:48:56.485Z,24.10
2022-11-10T04:49:19.114Z,23.65
2022-11-10T04:49:41.898Z,24.23
2022-11-10T04:50:05.386Z,25.13
2022-11-10T04:50:28.019Z,24.38
2022-11-10T04:50:50.764Z,24.05
2022-11-10T04:51:15.600Z,24.02
2022-11-10T04:51:41.035Z,23.90
2022-11-10T04:52:03.980Z,25.13
2022-11-10T04:52:28.355Z,24.20
2022-11-10T04:52:51.142Z,24.63
2022-11-10T04:53:13.924Z,25.83
2022-11-10T04:53:36.708Z,25.85
2022-11-10T04:54:02.222Z,24.92
2022-11-10T04:54:25.143Z,24.80
2022-11-10T04:54:47.929Z,24.83
2022-11-10T04:55:10.623Z,25.05
2022-11-10T04:55:33.327Z,24.38
2022-11-10T04:55:56.083Z,25.58
2022-11-10T04:56:19.948Z,25.65
2022-11-10T04:56:42.729Z,25.02
2022-11-10T04:57:05.448Z,24.15
2022-11-10T04:57:28.161Z,25.17
2022-11-10T04:57:50.968Z,24.95
2022-11-10T04:58:13.658Z,25.02
2022-11-10T04:58:36.464Z,25.95
2022-11-10T04:58:59.504Z,24.95
2022-11-10T04:59:22.399Z,24.65
2022-11-10T04:59:45.210Z,24.17
2022-11-10T05:00:10.729Z,23.83
2022-11-10T05:00:33.591Z,23.48
2022-11-10T05:00:56.515Z,24.60
2022-11-10T05:01:20.408Z,25.00
2022-11-10T05:01:43.229Z,25.80
2022-11-10T05:02:06.070Z,25.33
2022-11-10T05:02:28.782Z,25.50
2022-11-10T05:02:51.633Z,26.15
2022-11-10T05:03:14.479Z,24.60
2022-11-10T05:03:37.108Z,24.30
2022-11-10T05:04:00.133Z,23.50
2022-11-10T05:04:23.233Z,23.40
2022-11-10T05:04:46.678Z,23.92
2022-11-10T05:05:10.332Z,22.08
2022-11-10T05:05:33.058Z,22.88
2022-11-10T05:05:55.820Z,22.20
2022-11-10T05:06:18.657Z,22.30
2022-11-10T05:06:41.501Z,22.08
2022-11-10T05:07:04.397Z,21.48
2022-11-10T05:07:28.669Z,21.20
2022-11-10T05:07:51.536Z,20.50
2022-11-10T05:08:14.404Z,20.92
2022-11-10T05:08:37.211Z,20.58
2022-11-10T05:09:00.076Z,21.60
2022-11-10T05:09:22.776Z,21.65
2022-11-10T05:09:45.639Z,21.58
2022-11-10T05:10:09.452Z,21.85
2022-11-10T05:10:32.155Z,21.70
2022-11-10T05:10:54.901Z,21.80
2022-11-10T05:11:17.640Z,22.02
2022-11-10T05:11:40.371Z,23.02
2022-11-10T05:12:03.109Z,23.23
2022-11-10T05:12:25.850Z,22.55
2022-11-10T05:12:48.580Z,21.63
2022-11-10T05:13:11.907Z,24.13
2022-11-10T05:13:34.672Z,24.48
2022-11-10T05:13:57.463Z,24.70
2022-11-10T05:14:22.903Z,24.10
2022-11-10T05:14:45.629Z,24.73
2022-11-10T05:15:10.048Z,23.35
2022-11-10T05:15:33.310Z,24.25
2022-11-10T05:15:56.032Z,24.77
2022-11-10T05:16:18.739Z,25.48
2022-11-10T05:16:41.509Z,24.83
2022-11-10T05:17:04.267Z,26.38
2022-11-10T05:17:27.027Z,26.80
2022-11-10T05:17:50.887Z,27.10
2022-11-10T05:18:13.669Z,27.75
2022-11-10T05:18:36.582Z,28.02
2022-11-10T05:18:59.375Z,25.33
2022-11-10T05:19:22.157Z,26.92
2022-11-10T05:19:44.887Z,26.33
2022-11-10T05:20:09.147Z,24.63
2022-11-10T05:20:31.938Z,24.45
2022-11-10T05:20:54.652Z,24.27
2022-11-10T05:21:19.904Z,24.75
2022-11-10T05:21:42.752Z,24.50
2022-11-10T05:22:07.322Z,23.75
2022-11-10T05:22:31.600Z,24.40
2022-11-10T05:23:12.866Z,25.23
2022-11-10T05:23:38.433Z,25.98
2022-11-10T05:24:01.202Z,24.80
2022-11-10T05:24:24.022Z,25.58
2022-11-10T05:24:46.836Z,25.93
2022-11-10T05:25:10.032Z,25.52